Portada
METAR-TAF:

METAR-TAF

Aeropuertos :

Najran, Arabia Saudita

latitud: 17-37N, longitud: 044-25E, altitud: 1212 m

Observación

El informe se hizo hace 36 minutos, a las 11:00 UTC
Viento 8 kt del este
Temperatura 36°C
Humedad 12%
Presión 1014 hPa
Visibilidad 10 km o más
sin nubes por debajo de 1500 m y sin presencia de cumulonimbus.

METAR: OENG 241100Z 09008KT CAVOK 36/02 Q1014 NOSIG

Hora: 14:36 (11:36 UTC)

Pronóstico

El informe se hizo hace 12 horas y 36 minutos, a las 23:00 UTC
Pronóstico válido del 24 a las 00 UTC al 25 a las 06 UTC
Viento 3 kt con dirección variable
Visibilidad 10 km o más
sin nubes por debajo de 1500 m y sin presencia de cumulonimbus.
Evolucionando progresivamente
del 24 a las 06 UTC al 24 a las 08 UTC
Viento 10 kt del noreste
Visibilidad: 7000 m

TAF: OENG 232300Z 2400/2506 VRB03KT CAVOK BECMG 2406/2408 04010KT 7000 NSC

Observaciones y pronósticos meteorológicos de más de 4000 aeropuertos (mensajes METAR y TAF).

Los puntos amarillos y rojos representan las estaciones disponibles.

Ponga el ratón en el punto deseado para ver el nombre de la estación.

Haga clic para ver las observaciones y los pronósticos meteorológicos.

Para cambiar el mapa : haga clic en los botones verdes con una cruz de color negro para hacer un zoom, en el botón verde con un guión para alejar o en las flechas verdes para mapas adyacentes.


METAR-TAF: